Webster Mills, Pennsylvania
Current Conditions -  °F | °C
As of 7:53 PM on Thursday 18 Dec 2014 (Local Time) from KHGR Reporting Station
Overcast Overcast  
Wind Chill: 25°   Ceiling: 2800
Heat Index: 33°   Visibility: 10mi
Dew Point: 22°   Wind: 9mph
Humidity: 64%   Direction: 290°WNW
Pressure: 30.1"   Gusts: NA
Location:  39.973°N, 77.9661°W
Report Text: KHGR 190053Z 29008KT 10SM OVC028 01/M06 A3010 RMK AO2 SLP210 T00061056
Loading
Personal Weather Stations






























Interactive Weather Map New forecast layout! Learn more

10-Day Weather Forecast

Advertisements
Track Severe Weather on mobile